Time;durP1;ratioP1;P1;durP2;ratioP2;P2;SDS_P1;SDS_P2;PMS_P1;PMS_P2;Temp;Humidity;BMP_temperature;BMP_pressure;BME280_temperature;BME280_humidity;BME280_pressure;Samples;Min_cycle;Max_cycle;Signal;HPM_P1;HPM_P2
2021/10/18 00:01:59;;;;;;;10.17;7.27;;;11.50;99.90;;;;;;5005844;28;20197;-50
2021/10/18 00:04:27;;;;;;;9.57;6.97;;;11.60;99.90;;;;;;5005492;28;20524;-50
2021/10/18 00:06:54;;;;;;;10.33;7.27;;;11.60;99.90;;;;;;5000137;28;20659;-50
2021/10/18 00:09:21;;;;;;;11.40;7.60;;;11.50;99.90;;;;;;5005872;28;20579;-50
2021/10/18 00:11:47;;;;;;;9.37;7.27;;;11.30;99.90;;;;;;5005486;28;20247;-50
2021/10/18 00:14:14;;;;;;;9.33;7.73;;;11.40;99.90;;;;;;5004365;28;20542;-50
2021/10/18 00:16:41;;;;;;;14.60;7.97;;;11.30;99.90;;;;;;5005080;28;20191;-50
2021/10/18 00:19:08;;;;;;;11.00;7.43;;;11.30;99.90;;;;;;5003520;28;20223;-50
2021/10/18 00:21:35;;;;;;;13.00;7.47;;;11.40;99.90;;;;;;5000313;28;20911;-50
2021/10/18 00:24:03;;;;;;;9.20;7.30;;;11.60;99.90;;;;;;5006000;28;20726;-50
2021/10/18 00:26:32;;;;;;;12.33;7.37;;;11.50;99.90;;;;;;5000759;28;20296;-50
2021/10/18 00:28:59;;;;;;;13.90;7.70;;;11.50;99.90;;;;;;5003104;28;20214;-50
2021/10/18 00:31:26;;;;;;;12.33;7.63;;;11.30;99.90;;;;;;4998559;28;20733;-50
2021/10/18 00:33:53;;;;;;;11.57;7.77;;;11.30;99.90;;;;;;5005313;28;20203;-50
2021/10/18 00:36:20;;;;;;;11.03;8.27;;;11.10;99.90;;;;;;5005802;28;20224;-50
2021/10/18 00:38:47;;;;;;;13.47;7.83;;;11.10;99.90;;;;;;5006453;28;20664;-50
2021/10/18 00:41:14;;;;;;;12.80;7.50;;;11.10;99.90;;;;;;5008194;28;20294;-50
2021/10/18 00:43:45;;;;;;;12.30;7.87;;;11.20;99.90;;;;;;5007106;28;20658;-50
2021/10/18 00:46:14;;;;;;;13.37;7.87;;;11.30;99.90;;;;;;5008737;28;20221;-50
2021/10/18 00:48:41;;;;;;;9.70;7.27;;;11.40;99.90;;;;;;5008341;28;20244;-50
2021/10/18 00:51:09;;;;;;;8.87;7.37;;;11.30;99.90;;;;;;5007709;28;20600;-50
2021/10/18 00:53:36;;;;;;;13.27;7.47;;;11.30;99.90;;;;;;5009148;28;20266;-50
2021/10/18 00:56:04;;;;;;;13.37;7.07;;;11.30;99.90;;;;;;5007889;28;20196;-50
2021/10/18 00:58:31;;;;;;;10.27;8.07;;;11.30;99.90;;;;;;5009336;28;20604;-50
2021/10/18 01:00:59;;;;;;;11.97;8.13;;;11.30;99.90;;;;;;5005976;28;20536;-50
2021/10/18 01:03:26;;;;;;;13.03;8.00;;;11.30;99.90;;;;;;5009156;28;20204;-50
2021/10/18 01:05:53;;;;;;;12.00;7.83;;;11.30;99.90;;;;;;5006437;28;20233;-50
2021/10/18 01:08:20;;;;;;;13.80;7.40;;;11.30;99.90;;;;;;5009889;28;20536;-50
2021/10/18 01:10:47;;;;;;;14.00;8.83;;;11.10;99.90;;;;;;5007801;28;20610;-50
2021/10/18 01:13:14;;;;;;;10.93;8.47;;;11.20;99.90;;;;;;5007854;28;20231;-50
2021/10/18 01:15:41;;;;;;;12.57;9.43;;;11.20;99.90;;;;;;5007613;28;20636;-50
2021/10/18 01:18:08;;;;;;;12.03;8.20;;;11.20;99.90;;;;;;5008466;28;20196;-50
2021/10/18 01:20:40;;;;;;;14.10;8.57;;;11.10;99.90;;;;;;5006116;28;20609;-50
2021/10/18 01:23:09;;;;;;;9.83;7.90;;;11.10;99.90;;;;;;5010416;28;20236;-50
2021/10/18 01:25:37;;;;;;;12.87;7.57;;;11.10;99.90;;;;;;5008162;28;20208;-50
2021/10/18 01:28:05;;;;;;;13.77;9.00;;;11.20;99.90;;;;;;5007217;28;20222;-50
2021/10/18 01:30:33;;;;;;;14.07;9.57;;;11.10;99.90;;;;;;5008251;28;20207;-49
2021/10/18 01:33:00;;;;;;;14.20;8.73;;;11.10;99.90;;;;;;5009591;28;20230;-50
2021/10/18 01:35:26;;;;;;;10.27;8.20;;;11.00;99.90;;;;;;5007677;28;20227;-50
2021/10/18 01:37:53;;;;;;;16.70;9.00;;;11.00;99.90;;;;;;5008837;28;20231;-50
2021/10/18 01:40:22;;;;;;;12.63;8.57;;;11.00;99.90;;;;;;5007238;28;20304;-50
2021/10/18 01:42:50;;;;;;;13.37;8.80;;;10.90;99.90;;;;;;5008078;28;20239;-50
2021/10/18 01:45:18;;;;;;;11.50;8.33;;;10.90;99.90;;;;;;5007378;28;20338;-50
2021/10/18 01:47:45;;;;;;;12.80;8.17;;;10.90;99.90;;;;;;5008844;28;20240;-50
2021/10/18 01:50:19;;;;;;;12.30;8.93;;;10.80;99.90;;;;;;5020877;28;20239;-50
2021/10/18 01:52:47;;;;;;;12.00;7.90;;;10.80;99.90;;;;;;5006583;28;20603;-50
2021/10/18 01:55:15;;;;;;;10.37;8.03;;;10.80;99.90;;;;;;5006136;28;20512;-50
2021/10/18 01:57:42;;;;;;;10.77;8.63;;;10.70;99.90;;;;;;5007616;28;20644;-50
2021/10/18 02:00:10;;;;;;;13.03;8.20;;;10.60;99.90;;;;;;5007951;28;20374;-50
2021/10/18 02:02:37;;;;;;;15.23;8.90;;;10.60;99.90;;;;;;5007917;28;20581;-50
2021/10/18 02:05:04;;;;;;;15.83;8.33;;;10.70;99.90;;;;;;5006902;28;20252;-50
2021/10/18 02:07:31;;;;;;;10.43;8.20;;;10.50;99.90;;;;;;5005351;28;20213;-50
2021/10/18 02:09:59;;;;;;;10.47;8.40;;;10.50;99.90;;;;;;5006968;28;20294;-50
2021/10/18 02:12:27;;;;;;;13.07;9.03;;;10.40;99.90;;;;;;5008872;28;20298;-50
2021/10/18 02:14:54;;;;;;;13.13;8.63;;;10.40;99.90;;;;;;5006155;28;20270;-50
2021/10/18 02:17:21;;;;;;;15.30;9.47;;;10.40;99.90;;;;;;5008954;28;20610;-50
2021/10/18 02:19:48;;;;;;;13.30;8.47;;;10.50;99.90;;;;;;5007000;28;20205;-50
2021/10/18 02:22:15;;;;;;;13.03;8.90;;;10.50;99.90;;;;;;5005856;28;20250;-50
2021/10/18 02:24:42;;;;;;;12.40;8.60;;;10.50;99.90;;;;;;5006139;28;20235;-50
2021/10/18 02:27:09;;;;;;;12.07;9.27;;;10.30;99.90;;;;;;5007618;28;20278;-50
2021/10/18 02:29:35;;;;;;;12.33;9.13;;;10.40;99.90;;;;;;5006652;28;20260;-49
2021/10/18 02:32:02;;;;;;;13.43;8.70;;;10.40;99.90;;;;;;5007660;28;20236;-49
2021/10/18 02:34:29;;;;;;;14.17;9.00;;;10.40;99.90;;;;;;5003984;28;20299;-50
2021/10/18 02:36:56;;;;;;;13.47;8.93;;;10.40;99.90;;;;;;5006727;28;20312;-50
2021/10/18 02:39:23;;;;;;;15.00;9.23;;;10.10;99.90;;;;;;5005747;28;20295;-50
2021/10/18 02:41:49;;;;;;;14.03;9.77;;;10.20;99.90;;;;;;5006031;28;20206;-50
2021/10/18 02:44:16;;;;;;;17.47;9.47;;;10.20;99.90;;;;;;5006517;28;20607;-49
2021/10/18 02:46:43;;;;;;;12.50;9.53;;;10.40;99.90;;;;;;5007299;28;20619;-50
2021/10/18 02:49:10;;;;;;;12.27;9.10;;;10.40;99.90;;;;;;5004347;28;20756;-52
2021/10/18 02:51:37;;;;;;;14.40;9.80;;;10.40;99.90;;;;;;5003275;28;20226;-50
2021/10/18 02:54:05;;;;;;;11.03;9.00;;;10.30;99.90;;;;;;5006975;28;20195;-50
2021/10/18 02:56:32;;;;;;;12.87;9.60;;;10.30;99.90;;;;;;5004614;28;20752;-51
2021/10/18 02:58:59;;;;;;;11.77;9.00;;;10.30;99.90;;;;;;5008125;28;20249;-52
2021/10/18 03:01:26;;;;;;;16.57;10.07;;;10.30;99.90;;;;;;5007410;28;20208;-51
2021/10/18 03:03:53;;;;;;;15.37;9.47;;;10.40;99.90;;;;;;5007660;28;20284;-51
2021/10/18 03:06:20;;;;;;;13.17;8.90;;;10.40;99.90;;;;;;5003211;28;20794;-51
2021/10/18 03:08:47;;;;;;;15.93;9.00;;;10.30;99.90;;;;;;5007944;28;20300;-51
2021/10/18 03:11:15;;;;;;;13.67;8.93;;;10.20;99.90;;;;;;5003262;28;20228;-51
2021/10/18 03:13:41;;;;;;;10.80;9.00;;;10.30;99.90;;;;;;5007468;28;20207;-51
2021/10/18 03:16:08;;;;;;;12.83;9.47;;;10.20;99.90;;;;;;5003758;28;20240;-51
2021/10/18 03:18:36;;;;;;;15.47;9.33;;;10.20;99.90;;;;;;5006106;28;20196;-52
2021/10/18 03:21:03;;;;;;;11.67;9.50;;;10.30;99.90;;;;;;5004640;28;20529;-51
2021/10/18 03:23:30;;;;;;;17.30;10.23;;;10.20;99.90;;;;;;5005715;28;20217;-51
2021/10/18 03:25:57;;;;;;;18.37;9.97;;;10.20;99.90;;;;;;5003504;28;20286;-51
2021/10/18 03:28:24;;;;;;;14.53;9.67;;;10.10;99.90;;;;;;5006763;28;20309;-51
2021/10/18 03:30:51;;;;;;;13.23;9.80;;;10.20;99.90;;;;;;5003907;28;20294;-51
2021/10/18 03:33:18;;;;;;;12.97;9.87;;;10.10;99.90;;;;;;5005710;28;20214;-51
2021/10/18 03:35:45;;;;;;;15.43;10.17;;;10.10;99.90;;;;;;5003670;28;20702;-51
2021/10/18 03:38:12;;;;;;;17.13;10.37;;;10.20;99.90;;;;;;5003930;28;20277;-51
2021/10/18 03:40:39;;;;;;;14.50;10.33;;;10.10;99.90;;;;;;5005353;28;20258;-50
2021/10/18 03:43:06;;;;;;;18.40;10.43;;;10.10;99.90;;;;;;5006599;28;20495;-51
2021/10/18 03:45:33;;;;;;;17.23;10.53;;;10.00;99.90;;;;;;5005098;28;20244;-51
2021/10/18 03:48:00;;;;;;;13.90;10.13;;;10.10;99.90;;;;;;5005587;28;20622;-50
2021/10/18 03:50:27;;;;;;;17.00;11.30;;;10.10;99.90;;;;;;5004159;28;20866;-51
2021/10/18 03:52:53;;;;;;;13.20;10.10;;;10.10;99.90;;;;;;5004266;28;20331;-50
2021/10/18 03:55:20;;;;;;;14.40;10.60;;;10.20;99.90;;;;;;5006534;28;20229;-50
2021/10/18 03:57:47;;;;;;;15.57;10.50;;;10.10;99.90;;;;;;5008057;28;20238;-51
2021/10/18 04:00:14;;;;;;;16.07;10.80;;;10.10;99.90;;;;;;5006013;28;20233;-51
2021/10/18 04:02:41;;;;;;;14.77;10.57;;;10.10;99.90;;;;;;5007639;28;20233;-50
2021/10/18 04:05:08;;;;;;;16.33;10.93;;;10.10;99.90;;;;;;5007046;28;20664;-50
2021/10/18 04:07:38;;;;;;;15.30;10.90;;;10.10;99.90;;;;;;5007266;28;20245;-51
2021/10/18 04:10:06;;;;;;;15.20;10.87;;;10.10;99.90;;;;;;5006306;28;20208;-51
2021/10/18 04:12:33;;;;;;;13.30;10.20;;;10.00;99.90;;;;;;5005817;28;20584;-51
2021/10/18 04:14:59;;;;;;;18.00;10.30;;;10.00;99.90;;;;;;5003097;28;20235;-50
2021/10/18 04:17:26;;;;;;;13.50;10.57;;;10.00;99.90;;;;;;5005550;28;20296;-51
2021/10/18 04:19:53;;;;;;;12.87;10.47;;;10.00;99.90;;;;;;5005714;28;20829;-50
2021/10/18 04:22:20;;;;;;;16.60;11.40;;;10.00;99.90;;;;;;5006026;28;20201;-50
2021/10/18 04:24:47;;;;;;;13.67;10.37;;;9.90;99.90;;;;;;5004090;28;20339;-51
2021/10/18 04:27:14;;;;;;;15.80;10.83;;;9.90;99.90;;;;;;5007506;28;20242;-50
2021/10/18 04:29:40;;;;;;;14.37;11.03;;;9.90;99.90;;;;;;5006479;28;20309;-50
2021/10/18 04:32:08;;;;;;;16.47;12.13;;;9.90;99.90;;;;;;5005239;28;20200;-51
2021/10/18 04:34:34;;;;;;;16.60;10.73;;;9.90;99.90;;;;;;5003385;28;20263;-50
2021/10/18 04:37:01;;;;;;;13.93;10.93;;;9.90;99.90;;;;;;5006301;28;20390;-49
2021/10/18 04:39:28;;;;;;;18.20;11.77;;;9.90;99.90;;;;;;5007096;28;20672;-50
2021/10/18 04:41:56;;;;;;;17.03;11.40;;;9.80;99.90;;;;;;5006902;28;20244;-50
2021/10/18 04:44:23;;;;;;;16.17;11.67;;;9.80;99.90;;;;;;5004165;28;20255;-51
2021/10/18 04:46:50;;;;;;;17.27;11.27;;;9.70;99.90;;;;;;5005699;28;20280;-50
2021/10/18 04:49:16;;;;;;;18.33;11.33;;;9.70;99.90;;;;;;5006004;28;20699;-50
2021/10/18 04:51:43;;;;;;;16.57;11.53;;;9.70;99.90;;;;;;5004115;28;20198;-51
2021/10/18 04:54:10;;;;;;;17.83;11.97;;;9.70;99.90;;;;;;5007418;28;20235;-51
2021/10/18 04:56:37;;;;;;;15.13;11.63;;;9.80;99.90;;;;;;5002170;28;20256;-50
2021/10/18 04:59:04;;;;;;;20.27;11.97;;;9.70;99.90;;;;;;5005712;28;20236;-51
2021/10/18 05:01:30;;;;;;;16.97;11.50;;;9.60;99.90;;;;;;5004460;28;20280;-51
2021/10/18 05:03:57;;;;;;;17.40;11.73;;;9.60;99.90;;;;;;5003616;28;20611;-51
2021/10/18 05:06:24;;;;;;;14.90;10.57;;;9.60;99.90;;;;;;5003915;28;20676;-51
2021/10/18 05:08:53;;;;;;;16.43;12.23;;;9.60;99.90;;;;;;5005023;28;20612;-51
2021/10/18 05:11:21;;;;;;;18.00;12.43;;;9.60;99.90;;;;;;5004457;28;20289;-51
2021/10/18 05:13:48;;;;;;;18.70;12.40;;;9.60;99.90;;;;;;5003168;28;20209;-51
2021/10/18 05:16:15;;;;;;;17.47;11.93;;;9.60;99.90;;;;;;5003734;28;20369;-50
2021/10/18 05:18:42;;;;;;;19.43;12.17;;;9.60;99.90;;;;;;5006289;28;20198;-51
2021/10/18 05:21:08;;;;;;;17.80;12.50;;;9.70;99.90;;;;;;5001498;28;20241;-51
2021/10/18 05:23:35;;;;;;;21.63;12.90;;;9.60;99.90;;;;;;5007665;28;20305;-51
2021/10/18 05:26:03;;;;;;;18.80;12.40;;;9.70;99.90;;;;;;5005935;28;20283;-51
2021/10/18 05:28:29;;;;;;;18.73;12.60;;;9.50;99.90;;;;;;5007412;28;20315;-50
2021/10/18 05:30:56;;;;;;;19.60;13.07;;;9.60;99.90;;;;;;5006581;28;20241;-51
2021/10/18 05:33:23;;;;;;;20.27;11.77;;;9.50;99.90;;;;;;5006514;28;20201;-51
2021/10/18 05:35:50;;;;;;;18.40;13.27;;;9.60;99.90;;;;;;5006507;28;20239;-51
2021/10/18 05:38:19;;;;;;;19.70;13.37;;;9.60;99.90;;;;;;5005979;28;20225;-51
2021/10/18 05:40:50;;;;;;;19.57;12.90;;;9.60;99.90;;;;;;5002210;28;20268;-50
2021/10/18 05:43:17;;;;;;;19.13;11.73;;;9.70;99.90;;;;;;5005912;28;20300;-51
2021/10/18 05:45:45;;;;;;;19.37;13.03;;;9.60;99.90;;;;;;5003948;28;20203;-51
2021/10/18 05:48:12;;;;;;;20.47;12.17;;;9.60;99.90;;;;;;5003942;28;20216;-51
2021/10/18 05:50:43;;;;;;;19.23;12.77;;;9.60;99.90;;;;;;5006494;28;20257;-51
2021/10/18 05:53:10;;;;;;;19.27;13.30;;;9.70;99.90;;;;;;5003371;28;20249;-50
2021/10/18 05:55:37;;;;;;;18.63;13.43;;;9.70;99.90;;;;;;5002639;28;20206;-51
2021/10/18 05:58:07;;;;;;;20.80;11.63;;;9.60;99.90;;;;;;5001540;28;20633;-51
2021/10/18 06:00:36;;;;;;;19.93;13.30;;;9.60;99.90;;;;;;4990903;28;20205;-51
2021/10/18 06:03:04;;;;;;;19.40;12.50;;;9.60;99.90;;;;;;4994308;28;20204;-51
2021/10/18 06:05:31;;;;;;;22.00;12.77;;;9.70;99.90;;;;;;4998103;28;20614;-50
2021/10/18 06:08:07;;;;;;;19.33;12.13;;;9.70;99.90;;;;;;4999912;28;20221;-51
2021/10/18 06:10:35;;;;;;;18.77;12.63;;;9.60;99.90;;;;;;4999171;28;20219;-51
2021/10/18 06:13:02;;;;;;;20.73;12.30;;;9.70;99.90;;;;;;5002899;28;20460;-51
2021/10/18 06:15:29;;;;;;;19.87;13.33;;;9.50;99.90;;;;;;5008149;28;20202;-50
2021/10/18 06:18:05;;;;;;;18.87;12.40;;;9.70;99.90;;;;;;5004123;28;20210;-50
2021/10/18 06:20:32;;;;;;;19.87;12.93;;;9.70;99.90;;;;;;5001569;28;20222;-51
2021/10/18 06:22:58;;;;;;;16.93;12.83;;;9.70;99.90;;;;;;5004993;28;20226;-51
2021/10/18 06:25:25;;;;;;;17.87;12.60;;;9.80;99.90;;;;;;5006539;28;20234;-51
2021/10/18 06:27:52;;;;;;;18.27;12.53;;;9.80;99.90;;;;;;5006745;28;20270;-51
2021/10/18 06:30:19;;;;;;;18.77;11.90;;;9.80;99.90;;;;;;5006963;28;20645;-51
2021/10/18 06:32:46;;;;;;;22.00;13.40;;;9.80;99.90;;;;;;5005778;28;20206;-51
2021/10/18 06:35:12;;;;;;;22.67;14.00;;;9.90;99.90;;;;;;5005788;28;20201;-51
2021/10/18 06:37:39;;;;;;;18.87;13.37;;;9.90;99.90;;;;;;5005982;28;20362;-50
2021/10/18 06:40:07;;;;;;;19.47;13.10;;;9.70;99.90;;;;;;5003348;28;20266;-51
2021/10/18 06:42:34;;;;;;;20.37;13.17;;;9.80;99.90;;;;;;5007815;28;20291;-51
2021/10/18 06:45:00;;;;;;;25.33;14.27;;;9.80;99.90;;;;;;5006026;28;20257;-51
2021/10/18 06:47:28;;;;;;;20.73;13.23;;;9.80;99.90;;;;;;5008439;28;20707;-51
2021/10/18 06:49:57;;;;;;;21.53;12.63;;;9.90;99.90;;;;;;5002091;28;20530;-51
2021/10/18 06:52:26;;;;;;;24.07;13.40;;;10.00;99.90;;;;;;5007164;28;20232;-51
2021/10/18 06:54:53;;;;;;;20.77;13.20;;;9.90;99.90;;;;;;5011014;28;20208;-51
2021/10/18 06:57:19;;;;;;;18.90;12.20;;;10.00;99.90;;;;;;5006923;28;20224;-51
2021/10/18 06:59:46;;;;;;;17.83;12.53;;;10.10;99.90;;;;;;5004854;28;20208;-51
2021/10/18 07:02:13;;;;;;;25.70;13.90;;;10.10;99.90;;;;;;5010612;28;20456;-51
2021/10/18 07:04:40;;;;;;;18.23;12.27;;;10.00;99.90;;;;;;5011585;28;20199;-51
2021/10/18 07:07:07;;;;;;;20.13;12.93;;;10.00;99.90;;;;;;5002590;28;20695;-51
2021/10/18 07:09:35;;;;;;;19.00;11.83;;;10.00;99.90;;;;;;5005154;28;20322;-51
2021/10/18 07:12:02;;;;;;;17.93;13.03;;;9.90;99.90;;;;;;4994057;28;20225;-51
2021/10/18 07:14:28;;;;;;;18.40;12.43;;;9.90;99.90;;;;;;5002552;28;20924;-51
2021/10/18 07:16:55;;;;;;;20.23;11.87;;;10.00;99.90;;;;;;5004872;28;20207;-51
2021/10/18 07:19:22;;;;;;;21.23;12.80;;;10.00;99.90;;;;;;5016372;28;20206;-51
2021/10/18 07:21:49;;;;;;;20.73;12.87;;;10.10;99.90;;;;;;5007993;28;20203;-51
2021/10/18 07:24:17;;;;;;;18.30;11.63;;;10.20;99.90;;;;;;5006712;28;20352;-51
2021/10/18 07:26:47;;;;;;;17.17;11.80;;;10.20;99.90;;;;;;5003913;28;20718;-51
2021/10/18 07:29:14;;;;;;;17.97;11.93;;;10.10;99.90;;;;;;5005489;28;20251;-51
2021/10/18 07:31:41;;;;;;;20.50;12.63;;;10.20;99.90;;;;;;5002334;28;20561;-51
2021/10/18 07:34:14;;;;;;;22.33;13.10;;;10.40;99.90;;;;;;5002844;28;20612;-51
2021/10/18 07:36:49;;;;;;;16.03;11.77;;;10.40;99.90;;;;;;5003587;28;20415;-51
2021/10/18 07:39:19;;;;;;;22.57;13.83;;;10.30;99.90;;;;;;5004056;28;20200;-51
2021/10/18 07:41:47;;;;;;;19.50;11.93;;;10.20;99.90;;;;;;5005231;28;20664;-51
2021/10/18 07:44:14;;;;;;;17.43;11.53;;;10.30;99.90;;;;;;5002858;28;20607;-51
2021/10/18 07:46:41;;;;;;;20.30;12.90;;;10.40;99.90;;;;;;5006202;28;20669;-51
2021/10/18 07:49:08;;;;;;;18.77;12.77;;;10.50;99.90;;;;;;5005214;28;20219;-51
2021/10/18 07:51:35;;;;;;;20.37;12.43;;;10.70;99.90;;;;;;5004089;28;20545;-51
2021/10/18 07:54:03;;;;;;;18.43;12.07;;;10.60;99.90;;;;;;5006700;28;20250;-51
2021/10/18 07:56:31;;;;;;;19.50;12.07;;;10.70;99.90;;;;;;5006504;28;20617;-51
2021/10/18 07:58:58;;;;;;;19.00;12.43;;;10.70;99.90;;;;;;5006651;28;20735;-50
2021/10/18 08:01:25;;;;;;;19.23;13.00;;;10.90;99.90;;;;;;5004403;28;20255;-53
2021/10/18 08:03:52;;;;;;;18.27;12.37;;;10.90;99.90;;;;;;5003274;28;20211;-51
2021/10/18 08:06:19;;;;;;;16.90;12.27;;;11.20;99.90;;;;;;5001785;28;20226;-51
2021/10/18 08:08:54;;;;;;;17.90;11.57;;;11.20;99.90;;;;;;5005407;28;20624;-51
2021/10/18 08:11:21;;;;;;;17.40;11.53;;;11.30;99.90;;;;;;5002797;28;20311;-51
2021/10/18 08:13:48;;;;;;;18.57;11.50;;;11.40;99.90;;;;;;5005776;28;20214;-51
2021/10/18 08:16:16;;;;;;;19.30;11.77;;;11.40;99.90;;;;;;4998498;28;20714;-51
2021/10/18 08:18:43;;;;;;;18.93;12.63;;;11.70;99.90;;;;;;4999785;28;20679;-51
2021/10/18 08:21:11;;;;;;;18.00;11.47;;;11.80;99.90;;;;;;4992485;28;20602;-51
2021/10/18 08:23:38;;;;;;;18.90;12.07;;;12.00;99.90;;;;;;4997684;28;20381;-51
2021/10/18 08:26:05;;;;;;;17.43;11.10;;;12.10;99.90;;;;;;5004118;28;20732;-51
2021/10/18 08:28:32;;;;;;;18.87;12.40;;;12.40;99.90;;;;;;5004942;28;20213;-50
2021/10/18 08:31:12;;;;;;;18.83;12.30;;;12.30;99.90;;;;;;5003252;28;20313;-52
2021/10/18 08:33:39;;;;;;;17.80;10.97;;;12.70;99.90;;;;;;5004111;28;20200;-52
2021/10/18 08:36:05;;;;;;;15.10;10.90;;;12.70;99.90;;;;;;5004842;28;20288;-52
2021/10/18 08:38:53;;;;;;;17.13;11.17;;;12.70;99.90;;;;;;5007113;28;20298;-50
2021/10/18 08:41:31;;;;;;;13.30;10.47;;;12.60;1.00;;;;;;5005069;28;20576;-50
2021/10/18 08:44:16;;;;;;;17.07;11.67;;;12.80;99.90;;;;;;5006589;28;20223;-49
2021/10/18 08:46:59;;;;;;;18.43;10.87;;;12.90;1.00;;;;;;5005006;28;21133;-51
2021/10/18 08:49:26;;;;;;;14.63;11.23;;;12.70;1.00;;;;;;5001204;28;20288;-51
2021/10/18 08:51:53;;;;;;;17.00;11.57;;;12.60;1.00;;;;;;5004005;28;20225;-51
2021/10/18 08:54:20;;;;;;;16.50;11.03;;;12.40;1.00;;;;;;5006454;28;20271;-50
2021/10/18 08:56:55;;;;;;;16.23;10.80;;;12.40;71.10;;;;;;5007208;28;20232;-50
2021/10/18 08:59:24;;;;;;;15.23;11.10;;;12.50;92.10;;;;;;5008687;28;20661;-50
2021/10/18 09:01:58;;;;;;;16.03;10.63;;;12.50;99.90;;;;;;5006968;28;20219;-50
2021/10/18 09:04:45;;;;;;;14.07;10.30;;;12.60;57.20;;;;;;5009664;28;20297;-51
2021/10/18 09:07:16;;;;;;;16.47;10.50;;;12.50;1.00;;;;;;5008839;28;20212;-50
2021/10/18 09:09:51;;;;;;;16.33;12.50;;;12.10;99.90;;;;;;5005942;28;20200;-52
2021/10/18 09:12:26;;;;;;;16.30;11.63;;;11.70;99.90;;;;;;5009906;28;20305;-49
2021/10/18 09:15:15;;;;;;;16.30;10.60;;;11.80;99.90;;;;;;5007039;28;20258;-51
2021/10/18 09:17:41;;;;;;;14.90;11.53;;;12.00;60.80;;;;;;5011594;28;21032;-51
2021/10/18 09:20:27;;;;;;;17.53;11.20;;;12.20;1.00;;;;;;5007259;28;20288;-50
2021/10/18 09:23:15;;;;;;;17.23;11.07;;;12.20;1.00;;;;;;5007964;28;20200;-51
2021/10/18 09:25:43;;;;;;;18.33;11.53;;;12.50;8.30;;;;;;5009391;28;20212;-50
2021/10/18 09:28:13;;;;;;;14.80;10.57;;;12.90;1.00;;;;;;5007102;28;20201;-50
2021/10/18 09:30:45;;;;;;;15.97;11.10;;;12.90;14.10;;;;;;5009155;28;20335;-49
2021/10/18 09:33:31;;;;;;;15.00;10.53;;;12.90;97.80;;;;;;5013866;28;20611;-49
2021/10/18 09:36:00;;;;;;;16.27;11.40;;;12.80;60.00;;;;;;5006041;28;20668;-51
2021/10/18 09:38:27;;;;;;;16.93;10.83;;;12.80;99.90;;;;;;5006319;28;20197;-52
2021/10/18 09:40:57;;;;;;;15.30;11.00;;;12.70;99.90;;;;;;5007894;28;20205;-51
2021/10/18 09:43:36;;;;;;;16.23;10.53;;;12.90;99.90;;;;;;5007376;28;20259;-49
2021/10/18 10:51:46;;;;;;;14.63;10.10;;;13.90;49.60;;;;;;5001217;28;20682;-50
2021/10/18 10:54:37;;;;;;;16.03;9.97;;;13.90;49.50;;;;;;5001448;28;20202;-51
2021/10/18 10:57:11;;;;;;;14.40;9.77;;;14.10;60.60;;;;;;5001432;28;20205;-51
2021/10/18 10:59:51;;;;;;;15.80;10.57;;;14.20;59.50;;;;;;5000931;28;20244;-51
2021/10/18 11:02:30;;;;;;;13.70;9.03;;;14.00;50.90;;;;;;5001746;28;20351;-51
2021/10/18 11:04:57;;;;;;;12.17;8.90;;;14.10;10.60;;;;;;5004477;28;20264;-51
2021/10/18 11:07:53;;;;;;;15.00;9.93;;;14.30;4.30;;;;;;5003296;28;20309;-52
2021/10/18 11:10:22;;;;;;;14.10;9.70;;;14.20;21.00;;;;;;4979874;28;20210;-51
2021/10/18 11:13:04;;;;;;;12.87;9.53;;;14.30;7.70;;;;;;4999014;28;20221;-52
2021/10/18 11:15:31;;;;;;;13.80;9.17;;;14.40;1.00;;;;;;4993720;28;20206;-49
2021/10/18 11:17:58;;;;;;;13.60;9.07;;;14.50;1.00;;;;;;5002283;28;20208;-51
2021/10/18 11:20:27;;;;;;;13.70;9.00;;;14.60;3.40;;;;;;5001817;28;20247;-52
2021/10/18 11:22:57;;;;;;;13.80;8.97;;;15.00;13.70;;;;;;5000826;28;20713;-52
2021/10/18 11:25:30;;;;;;;12.13;8.27;;;15.00;1.00;;;;;;5001795;28;20271;-50
2021/10/18 11:27:59;;;;;;;12.40;9.00;;;15.00;1.00;;;;;;5004462;28;20215;-52
2021/10/18 11:30:29;;;;;;;14.57;8.47;;;15.00;1.00;;;;;;5000566;28;20208;-50
2021/10/18 11:33:02;;;;;;;12.20;7.97;;;15.20;1.00;;;;;;5000315;28;20336;-51
2021/10/18 11:35:33;;;;;;;12.50;8.10;;;15.20;1.00;;;;;;5000085;28;20255;-51
2021/10/18 11:38:06;;;;;;;10.87;8.43;;;15.40;1.00;;;;;;5001403;28;20274;-52
2021/10/18 11:40:48;;;;;;;10.57;8.17;;;15.20;1.00;;;;;;5000427;28;20236;-50
2021/10/18 11:43:19;;;;;;;9.43;7.37;;;15.40;1.00;;;;;;4999375;28;20640;-50
2021/10/18 11:45:51;;;;;;;10.33;7.47;;;15.40;1.00;;;;;;4998863;28;20263;-50
2021/10/18 11:48:24;;;;;;;10.63;7.67;;;15.40;1.00;;;;;;5001795;28;20916;-50
2021/10/18 11:50:53;;;;;;;11.00;7.47;;;15.20;1.00;;;;;;5000746;28;20649;-52
2021/10/18 11:53:22;;;;;;;11.17;8.07;;;15.10;1.00;;;;;;4990784;28;20274;-50
2021/10/18 11:55:53;;;;;;;11.97;7.60;;;15.10;1.00;;;;;;4992322;28;20203;-50
2021/10/18 11:58:38;;;;;;;10.47;7.73;;;15.10;1.00;;;;;;5001806;28;20200;-52
2021/10/18 12:01:10;;;;;;;11.40;7.70;;;15.10;1.00;;;;;;5002668;28;20234;-52
2021/10/18 12:03:38;;;;;;;11.83;8.00;;;15.10;1.00;;;;;;5000929;28;20202;-51
2021/10/18 12:06:08;;;;;;;11.27;7.10;;;15.10;1.00;;;;;;5001470;28;20468;-52
2021/10/18 12:08:37;;;;;;;10.87;7.43;;;14.90;1.00;;;;;;4999345;28;20290;-50
2021/10/18 12:11:09;;;;;;;14.67;6.77;;;15.10;1.00;;;;;;5002321;28;20203;-50
2021/10/18 12:13:39;;;;;;;11.07;7.77;;;15.10;1.00;;;;;;5000470;28;20205;-50
2021/10/18 12:16:20;;;;;;;9.00;7.40;;;15.20;1.00;;;;;;5002895;28;20203;-52
2021/10/18 12:19:01;;;;;;;10.60;6.37;;;15.30;1.00;;;;;;5003907;28;20281;-50
2021/10/18 12:21:38;;;;;;;10.23;7.40;;;15.10;1.00;;;;;;5001846;28;20294;-50
2021/10/18 12:24:11;;;;;;;10.53;6.93;;;14.90;1.00;;;;;;4998260;28;20198;-52
2021/10/18 12:26:45;;;;;;;9.00;6.80;;;15.20;1.00;;;;;;5001071;28;20251;-50
2021/10/18 12:29:17;;;;;;;10.37;7.37;;;15.20;1.00;;;;;;5001743;28;20719;-50
2021/10/18 12:31:49;;;;;;;10.13;6.80;;;15.10;1.00;;;;;;5002136;28;20219;-50
2021/10/18 12:34:21;;;;;;;7.83;6.57;;;15.10;1.00;;;;;;5006106;28;20659;-50
2021/10/18 12:36:51;;;;;;;11.13;7.30;;;15.30;1.00;;;;;;5004684;28;20249;-50
2021/10/18 12:39:39;;;;;;;11.23;6.70;;;15.40;1.00;;;;;;5001222;28;20630;-50
2021/10/18 12:42:29;;;;;;;11.47;7.23;;;15.50;1.00;;;;;;5000591;28;20249;-51
2021/10/18 12:45:05;;;;;;;7.77;6.37;;;15.50;1.00;;;;;;4985376;28;20277;-53
2021/10/18 12:47:34;;;;;;;9.87;7.00;;;15.60;1.00;;;;;;4998204;28;20206;-52
2021/10/18 12:50:11;;;;;;;12.17;6.90;;;15.50;1.00;;;;;;4997292;28;21576;-61
2021/10/18 12:52:40;;;;;;;13.53;6.80;;;15.50;1.00;;;;;;4997702;28;20255;-60
2021/10/18 12:55:31;;;;;;;9.27;6.80;;;15.50;1.00;;;;;;4997352;28;20770;-59
2021/10/18 12:58:00;;;;;;;11.17;7.43;;;15.40;1.00;;;;;;5001242;28;20241;-62
2021/10/18 13:00:33;;;;;;;9.77;6.57;;;15.30;1.00;;;;;;4999263;28;20247;-59
2021/10/18 13:03:07;;;;;;;8.70;6.00;;;15.40;1.00;;;;;;5004548;28;20753;-61
2021/10/18 13:05:48;;;;;;;10.47;6.90;;;15.40;1.00;;;;;;5000850;28;20212;-60
2021/10/18 13:08:24;;;;;;;9.73;6.60;;;15.40;30.00;;;;;;5005214;28;20204;-61
2021/10/18 13:10:53;;;;;;;9.33;6.30;;;15.40;1.00;;;;;;5005789;28;20200;-60
2021/10/18 13:13:22;;;;;;;8.90;6.73;;;15.40;13.60;;;;;;5005738;28;20746;-59
2021/10/18 13:15:51;;;;;;;9.33;6.40;;;15.40;2.80;;;;;;5007434;28;20194;-60
2021/10/18 13:18:20;;;;;;;10.73;6.83;;;15.60;31.00;;;;;;5005175;28;20264;-58
2021/10/18 13:20:48;;;;;;;9.30;6.00;;;15.70;7.50;;;;;;5006773;28;20207;-61
2021/10/18 13:23:16;;;;;;;9.57;6.53;;;15.70;6.20;;;;;;5007468;28;20206;-62
2021/10/18 13:25:45;;;;;;;9.00;6.27;;;15.70;1.00;;;;;;5006418;28;20716;-59
2021/10/18 13:28:13;;;;;;;9.23;6.43;;;15.80;19.90;;;;;;5008260;28;20212;-60
2021/10/18 13:30:41;;;;;;;9.93;6.27;;;15.80;49.30;;;;;;5006248;28;20306;-60
2021/10/18 13:33:08;;;;;;;9.23;6.10;;;16.00;1.00;;;;;;5008384;28;20783;-60
2021/10/18 13:35:36;;;;;;;9.07;6.23;;;16.00;1.00;;;;;;4991946;28;20244;-60
2021/10/18 13:38:03;;;;;;;8.27;6.23;;;15.80;1.00;;;;;;5006777;28;20241;-59
2021/10/18 13:40:33;;;;;;;10.30;5.73;;;15.70;1.00;;;;;;5003319;28;20308;-60
2021/10/18 13:43:00;;;;;;;7.27;6.10;;;15.80;7.20;;;;;;5005006;28;20194;-53
2021/10/18 13:45:27;;;;;;;10.10;6.40;;;15.90;13.20;;;;;;5002382;28;20313;-49
2021/10/18 13:47:54;;;;;;;8.90;5.80;;;15.80;1.00;;;;;;5006524;28;20214;-52
2021/10/18 13:50:22;;;;;;;7.47;5.53;;;15.80;13.10;;;;;;5001545;28;20259;-52
2021/10/18 13:52:52;;;;;;;7.50;5.67;;;15.80;1.00;;;;;;5004540;28;20334;-52
2021/10/18 13:55:23;;;;;;;13.67;6.57;;;15.80;10.20;;;;;;5003202;28;20204;-52